Time;durP1;ratioP1;P1;durP2;ratioP2;P2;SDS_P1;SDS_P2;PMS_P1;PMS_P2;Temp;Humidity;BMP_temperature;BMP_pressure;BME280_temperature;BME280_humidity;BME280_pressure;Samples;Min_cycle;Max_cycle;Signal;HPM_P1;HPM_P2
2022/12/13 02:20:15;;;;;;;30.97;12.63;;;;;;;1.15;100.00;99856.92;1808729;79;22904;-66
2022/12/13 02:22:54;;;;;;;34.93;13.27;;;;;;;1.17;100.00;99754.28;1782462;79;21018;-66
2022/12/13 02:25:55;;;;;;;29.77;10.97;;;;;;;1.19;100.00;99757.67;1760940;80;21073;-65
2022/12/13 02:28:51;;;;;;;32.60;11.03;;;;;;;1.21;100.00;99759.76;1782707;80;21463;-65
2022/12/13 02:31:32;;;;;;;28.30;10.43;;;;;;;1.23;100.00;99763.14;1782827;80;21045;-65
2022/12/13 02:34:24;;;;;;;26.60;10.03;;;;;;;1.24;100.00;99765.70;1782732;80;21495;-66
2022/12/13 02:37:12;;;;;;;26.70;10.53;;;;;;;1.28;100.00;99759.65;1782804;80;21495;-66
2022/12/13 02:39:47;;;;;;;30.83;11.43;;;;;;;1.35;100.00;99760.87;1779075;80;21033;-66
2022/12/13 02:42:25;;;;;;;33.10;11.47;;;;;;;1.40;100.00;99756.50;1773381;80;21014;-65
2022/12/13 02:45:00;;;;;;;35.47;11.60;;;;;;;1.43;100.00;99751.78;1782274;79;21037;-66
2022/12/13 02:47:27;;;;;;;27.70;11.03;;;;;;;1.45;100.00;99752.53;1782321;80;21017;-66
2022/12/13 02:49:58;;;;;;;28.07;10.80;;;;;;;1.50;100.00;99763.65;1726987;80;21482;-65
2022/12/13 02:52:27;;;;;;;31.50;11.57;;;;;;;1.55;100.00;99765.97;1782435;80;21061;-66
2022/12/13 02:54:54;;;;;;;29.17;12.33;;;;;;;1.59;100.00;99762.58;1782681;80;20990;-65
2022/12/13 02:57:32;;;;;;;27.93;11.20;;;;;;;1.60;100.00;99759.80;1782469;79;20997;-65
2022/12/13 03:00:05;;;;;;;28.97;11.90;;;;;;;1.60;100.00;99765.13;1782726;80;21025;-65
2022/12/13 03:03:06;;;;;;;31.80;11.07;;;;;;;1.63;100.00;99766.23;1782527;80;21030;-65
2022/12/13 03:08:30;;;;;;;;;;;;;;;1.67;100.00;99760.17;1742788;80;21045;-65
2022/12/13 03:11:07;;;;;;;26.07;11.20;;;;;;;1.69;100.00;99756.89;1782786;80;20111;-65
2022/12/13 03:14:00;;;;;;;28.33;11.33;;;;;;;1.70;100.00;99755.44;1782582;79;20986;-66
2022/12/13 03:16:40;;;;;;;25.37;10.67;;;;;;;1.71;100.00;99746.45;1782701;80;21070;-65
2022/12/13 03:19:09;;;;;;;26.13;11.20;;;;;;;1.75;100.00;99748.89;1787873;80;21017;-66
2022/12/13 03:21:43;;;;;;;27.57;11.83;;;;;;;1.77;100.00;99750.94;1790661;79;21037;-65
2022/12/13 03:24:10;;;;;;;25.73;11.00;;;;;;;1.79;100.00;99753.87;1790954;80;21060;-66
2022/12/13 03:26:38;;;;;;;26.90;11.33;;;;;;;1.78;100.00;99755.32;1790587;80;21017;-65
2022/12/13 03:29:05;;;;;;;25.10;10.77;;;;;;;1.74;100.00;99747.21;1790677;80;21065;-66
2022/12/13 03:31:33;;;;;;;24.67;10.60;;;;;;;1.71;100.00;99745.62;1790700;80;21080;-66
2022/12/13 03:34:00;;;;;;;24.40;10.27;;;;;;;1.68;100.00;99729.86;1790767;80;21558;-66
2022/12/13 03:36:27;;;;;;;27.03;10.90;;;;;;;1.66;100.00;99686.00;1790858;80;21068;-66
2022/12/13 03:38:54;;;;;;;24.47;10.60;;;;;;;1.63;100.00;99680.94;1790951;80;20994;-65
2022/12/13 03:41:30;;;;;;;27.87;10.70;;;;;;;1.59;100.00;99670.14;1790910;79;21518;-66
2022/12/13 03:43:53;;;;;;;23.77;9.77;;;;;;;1.56;100.00;99658.87;1790380;80;21353;-65
2022/12/13 03:46:20;;;;;;;28.67;12.07;;;;;;;1.54;100.00;99657.70;1790714;80;21518;-65
2022/12/13 03:48:46;;;;;;;25.53;11.13;;;;;;;1.52;100.00;99650.28;1790721;79;21470;-65
2022/12/13 03:51:13;;;;;;;24.57;9.83;;;;;;;1.49;100.00;99651.88;1790697;79;21085;-65
2022/12/13 03:53:40;;;;;;;24.73;10.23;;;;;;;1.52;100.00;99636.95;1790755;80;21061;-64
2022/12/13 03:56:07;;;;;;;22.93;10.30;;;;;;;1.54;100.00;99638.17;1790560;80;21014;-65
2022/12/13 03:58:35;;;;;;;24.30;9.77;;;;;;;1.53;100.00;99629.34;1791004;79;21057;-66
2022/12/13 04:01:06;;;;;;;21.60;8.83;;;;;;;1.47;100.00;99625.36;1790916;80;21063;-65
2022/12/13 04:03:34;;;;;;;18.07;9.10;;;;;;;1.42;100.00;99614.71;1790934;80;21525;-66
2022/12/13 04:06:01;;;;;;;23.70;9.90;;;;;;;1.37;100.00;99610.23;1790643;80;21049;-67
2022/12/13 04:08:28;;;;;;;24.03;10.33;;;;;;;1.32;100.00;99615.92;1790676;80;21092;-66
2022/12/13 04:10:55;;;;;;;22.57;9.97;;;;;;;1.28;100.00;99607.32;1790851;80;21021;-66
2022/12/13 04:13:34;;;;;;;24.90;10.43;;;;;;;1.24;100.00;99597.89;1790682;79;21064;-66
2022/12/13 04:16:01;;;;;;;21.43;9.70;;;;;;;1.20;100.00;99592.42;1764462;80;21017;-65
2022/12/13 04:18:28;;;;;;;23.13;9.83;;;;;;;1.17;100.00;99583.38;1788277;80;21041;-65
2022/12/13 04:20:56;;;;;;;23.60;10.87;;;;;;;1.16;100.00;99575.50;1781707;80;21034;-66
2022/12/13 04:23:23;;;;;;;20.93;9.20;;;;;;;1.11;100.00;99564.70;1781842;80;21014;-66
2022/12/13 04:25:50;;;;;;;20.67;9.97;;;;;;;1.07;100.00;99556.61;1782067;80;21033;-65
2022/12/13 04:28:17;;;;;;;24.70;9.60;;;;;;;1.07;100.00;99552.62;1750603;80;21017;-67
2022/12/13 04:30:47;;;;;;;20.07;8.23;;;;;;;1.08;100.00;99550.33;1781810;80;21009;-65
2022/12/13 04:33:15;;;;;;;23.90;9.83;;;;;;;1.07;100.00;99543.30;1781950;80;21026;-66
2022/12/13 04:35:42;;;;;;;24.00;9.53;;;;;;;1.05;100.00;99541.73;1782090;80;21010;-66
2022/12/13 04:38:08;;;;;;;23.23;9.60;;;;;;;1.00;100.00;99534.60;1781762;80;21029;-65
2022/12/13 04:40:36;;;;;;;24.47;9.20;;;;;;;0.94;100.00;99526.13;1782040;80;21025;-64
2022/12/13 04:43:03;;;;;;;25.13;9.40;;;;;;;0.88;100.00;99519.95;1781835;80;21026;-66
2022/12/13 04:45:33;;;;;;;24.30;9.80;;;;;;;0.83;100.00;99518.13;1782211;79;21036;-66
2022/12/13 04:48:00;;;;;;;23.60;9.80;;;;;;;0.79;100.00;99509.20;1781788;80;21022;-66
2022/12/13 04:50:26;;;;;;;22.37;10.27;;;;;;;0.75;100.00;99500.61;1781806;80;21017;-65
2022/12/13 04:52:53;;;;;;;27.17;9.97;;;;;;;0.71;100.00;99493.84;1781983;80;21562;-64
2022/12/13 04:55:20;;;;;;;26.07;10.20;;;;;;;0.69;100.00;99491.77;1781862;80;21049;-66
2022/12/13 04:57:47;;;;;;;21.57;9.30;;;;;;;0.67;100.00;99495.04;1781928;80;20994;-66
2022/12/13 05:00:15;;;;;;;22.50;10.10;;;;;;;0.65;100.00;99497.81;1782074;80;20998;-65
2022/12/13 05:02:44;;;;;;;23.53;9.73;;;;;;;0.65;100.00;99496.98;1781810;80;21026;-66
2022/12/13 05:05:11;;;;;;;27.50;9.87;;;;;;;0.64;100.00;99500.59;1782081;80;21020;-66
2022/12/13 05:07:38;;;;;;;28.90;10.83;;;;;;;0.60;100.00;99499.98;1781768;80;21026;-66
2022/12/13 05:10:06;;;;;;;27.80;11.47;;;;;;;0.60;100.00;99500.48;1781961;80;21532;-65
2022/12/13 05:12:33;;;;;;;24.93;10.40;;;;;;;0.59;100.00;99502.80;1782083;80;21037;-66
2022/12/13 05:15:00;;;;;;;24.83;10.33;;;;;;;0.58;100.00;99495.28;1782008;80;21061;-65
2022/12/13 05:17:27;;;;;;;27.60;9.93;;;;;;;0.56;100.00;99492.73;1781844;80;21065;-64
2022/12/13 05:19:54;;;;;;;24.90;10.37;;;;;;;0.59;100.00;99501.47;1781692;80;21025;-66
2022/12/13 05:22:22;;;;;;;25.83;10.50;;;;;;;0.58;100.00;99493.95;1781865;80;21543;-66
2022/12/13 05:24:49;;;;;;;27.27;10.83;;;;;;;0.59;100.00;99486.34;1781729;80;21009;-66
2022/12/13 05:27:15;;;;;;;26.10;11.33;;;;;;;0.60;100.00;99478.70;1782035;79;21545;-65
2022/12/13 05:29:43;;;;;;;28.27;11.50;;;;;;;0.61;100.00;99480.41;1782101;80;21034;-65
2022/12/13 05:32:09;;;;;;;25.50;11.43;;;;;;;0.60;100.00;99470.72;1781673;80;21026;-64
2022/12/13 05:34:36;;;;;;;28.43;10.97;;;;;;;0.61;100.00;99475.58;1781928;80;21053;-65
2022/12/13 05:37:03;;;;;;;31.00;12.23;;;;;;;0.60;100.00;99478.70;1782027;80;21030;-66
2022/12/13 05:39:30;;;;;;;25.03;10.50;;;;;;;0.60;100.00;99469.89;1781944;79;21038;-65
2022/12/13 05:41:58;;;;;;;28.97;11.87;;;;;;;0.61;100.00;99467.59;1781901;80;21045;-64
2022/12/13 05:44:24;;;;;;;30.87;12.20;;;;;;;0.61;100.00;99448.98;1781871;80;21519;-65
2022/12/13 05:49:49;;;;;;;24.83;11.27;;;;;;;0.61;100.00;99456.47;1778129;80;21018;-65
2022/12/13 05:52:20;;;;;;;29.23;11.00;;;;;;;0.61;100.00;99460.45;1781916;80;21022;-65
2022/12/13 05:54:47;;;;;;;31.97;11.83;;;;;;;0.63;100.00;99465.16;1781350;80;21048;-65
2022/12/13 05:57:14;;;;;;;28.90;11.00;;;;;;;0.66;100.00;99473.41;1781651;80;21569;-66
2022/12/13 05:59:41;;;;;;;28.50;10.63;;;;;;;0.67;100.00;99475.92;1781293;80;21064;-65
2022/12/13 06:02:08;;;;;;;27.50;10.50;;;;;;;0.66;100.00;99488.88;1781284;80;21063;-66
2022/12/13 06:04:35;;;;;;;25.77;9.50;;;;;;;0.66;100.00;99491.54;1781371;80;21069;-64
2022/12/13 06:07:02;;;;;;;27.93;9.90;;;;;;;0.72;100.00;99507.01;1781691;80;21005;-64
2022/12/13 06:09:29;;;;;;;27.97;10.77;;;;;;;0.80;100.00;99501.56;1781970;80;21025;-65
2022/12/13 06:11:56;;;;;;;26.53;10.00;;;;;;;0.86;100.00;99506.41;1781857;80;21475;-66
2022/12/13 06:14:23;;;;;;;32.10;11.33;;;;;;;0.93;100.00;99510.28;1782102;80;21514;-66
2022/12/13 06:16:52;;;;;;;26.07;9.93;;;;;;;0.98;100.00;99513.42;1781689;80;21061;-64
2022/12/13 06:19:20;;;;;;;26.93;10.20;;;;;;;1.02;100.00;99513.53;1784615;79;21057;-65
2022/12/13 06:21:53;;;;;;;25.23;9.93;;;;;;;1.06;100.00;99520.78;1790651;80;21478;-65
2022/12/13 06:24:26;;;;;;;25.67;10.10;;;;;;;1.10;100.00;99519.09;1786658;80;21068;-62
2022/12/13 06:26:53;;;;;;;29.13;10.90;;;;;;;1.16;100.00;99520.41;1788881;79;21436;-65
2022/12/13 06:29:21;;;;;;;28.70;12.03;;;;;;;1.18;100.00;99520.30;1774212;80;21502;-65
2022/12/13 06:31:55;;;;;;;29.47;13.00;;;;;;;1.20;100.00;99515.19;1781037;80;21018;-66
2022/12/13 06:34:23;;;;;;;32.87;13.10;;;;;;;1.22;100.00;99529.25;1786826;80;20974;-65
2022/12/13 06:36:50;;;;;;;35.33;14.17;;;;;;;1.22;100.00;99530.59;1790435;80;21005;-65
2022/12/13 06:39:18;;;;;;;28.83;11.57;;;;;;;1.22;100.00;99532.38;1789825;79;21037;-65
2022/12/13 06:42:16;;;;;;;34.63;13.37;;;;;;;1.20;100.00;99531.17;1787452;80;21025;-65
2022/12/13 06:44:55;;;;;;;36.00;14.47;;;;;;;1.21;100.00;99535.54;1790182;80;21056;-66
2022/12/13 07:03:09;;;;;;;33.60;12.40;;;;;;;1.25;100.00;99537.47;1733839;83;21138;-66
2022/12/13 07:05:38;;;;;;;38.07;12.40;;;;;;;1.30;100.00;99549.94;1735062;83;21543;-65
2022/12/13 07:08:06;;;;;;;31.63;11.73;;;;;;;1.35;100.00;99556.20;1730495;83;21033;-65
2022/12/13 07:10:33;;;;;;;29.33;10.80;;;;;;;1.41;100.00;99561.05;1704001;83;21085;-68
2022/12/13 07:13:42;;;;;;;33.30;11.97;;;;;;;1.47;100.00;99545.88;1705622;84;21068;-65
2022/12/13 07:16:10;;;;;;;31.60;12.13;;;;;;;1.47;100.00;99532.56;1706011;84;21518;-66
2022/12/13 07:18:37;;;;;;;34.93;13.03;;;;;;;1.48;100.00;99536.44;1705886;84;21551;-65
2022/12/13 07:21:07;;;;;;;31.90;13.10;;;;;;;1.51;100.00;99536.20;1700331;83;21021;-65
2022/12/13 07:23:34;;;;;;;27.87;10.90;;;;;;;1.53;100.00;99526.75;1708920;83;21046;-65
2022/12/13 07:26:01;;;;;;;27.63;10.63;;;;;;;1.55;100.00;99526.63;1727796;83;21047;-65
2022/12/13 07:28:33;;;;;;;30.63;11.50;;;;;;;1.56;100.00;99535.83;1727962;83;21010;-65
2022/12/13 07:31:01;;;;;;;30.83;11.17;;;;;;;1.59;100.00;99529.39;1729331;83;21157;-65
2022/12/13 07:33:28;;;;;;;30.00;11.70;;;;;;;1.64;100.00;99519.20;1729444;83;21546;-65
2022/12/13 07:36:09;;;;;;;30.23;10.87;;;;;;;1.68;100.00;99516.16;1708374;83;21503;-66
2022/12/13 07:38:36;;;;;;;28.70;11.43;;;;;;;1.71;100.00;99515.89;1700397;84;21045;-67
2022/12/13 07:41:04;;;;;;;33.83;12.03;;;;;;;1.76;100.00;99533.34;1702913;83;21037;-66
2022/12/13 07:43:32;;;;;;;31.17;12.03;;;;;;;1.77;100.00;99536.34;1719786;83;21069;-65
2022/12/13 07:46:01;;;;;;;27.00;11.03;;;;;;;1.78;100.00;99524.73;1729385;83;21080;-65
2022/12/13 07:48:28;;;;;;;27.30;11.57;;;;;;;1.79;100.00;99512.61;1723796;83;21041;-66
2022/12/13 07:51:01;;;;;;;31.17;11.27;;;;;;;1.80;100.00;99494.78;1728696;83;21014;-66
2022/12/13 07:53:30;;;;;;;27.83;11.27;;;;;;;1.83;100.00;99490.04;1716713;83;21076;-66
2022/12/13 07:55:59;;;;;;;32.23;12.10;;;;;;;1.86;100.00;99483.59;1681055;84;21099;-67
2022/12/13 07:58:28;;;;;;;28.17;11.23;;;;;;;1.88;100.00;99473.17;1682152;83;21116;-65
2022/12/13 08:01:01;;;;;;;30.70;11.33;;;;;;;1.94;100.00;99471.80;1700342;84;21049;-65
2022/12/13 08:03:28;;;;;;;;;;;;;;;2.01;100.00;99465.47;1702660;84;21057;-64
2022/12/13 08:06:01;;;;;;;33.07;11.97;;;;;;;2.08;100.00;99471.47;1711823;83;20133;-64
2022/12/13 08:08:29;;;;;;;27.22;10.20;;;;;;;2.12;100.00;99472.55;1714711;83;21041;-65
2022/12/13 08:11:07;;;;;;;28.70;11.00;;;;;;;2.19;100.00;99475.89;1702934;83;20994;-65
2022/12/13 08:13:38;;;;;;;22.77;10.30;;;;;;;2.24;100.00;99480.34;1700079;84;21522;-65
2022/12/13 08:16:08;;;;;;;27.13;10.13;;;;;;;2.34;100.00;99487.55;1700255;84;21522;-64
2022/12/13 08:26:30;;;;;;;20.43;8.80;;;;;;;2.49;100.00;99460.05;1683155;84;21101;-74
2022/12/13 08:28:57;;;;;;;20.37;8.60;;;;;;;2.50;100.00;99451.91;1720576;83;20982;-74
2022/12/13 08:31:33;;;;;;;18.27;8.37;;;;;;;2.54;100.00;99459.16;1717302;83;21008;-75
2022/12/13 08:34:03;;;;;;;25.83;11.10;;;;;;;2.58;100.00;99453.40;1725474;83;21002;-71
2022/12/13 08:40:24;;;;;;;19.63;8.83;;;;;;;2.61;100.00;99447.80;1712293;83;21042;-74
2022/12/13 08:42:55;;;;;;;20.60;9.33;;;;;;;2.69;100.00;99429.77;1718240;83;21015;-74
2022/12/13 08:45:25;;;;;;;27.63;11.90;;;;;;;2.73;100.00;99425.86;1717692;83;20975;-73
2022/12/13 08:47:57;;;;;;;23.52;9.75;;;;;;;2.78;100.00;99428.97;1718108;83;21042;-75
2022/12/13 08:50:24;;;;;;;22.97;10.23;;;;;;;2.83;100.00;99416.53;1718050;83;21018;-74
2022/12/13 08:53:48;;;;;;;23.70;10.43;;;;;;;2.87;100.00;99406.42;1714287;82;21183;-65
2022/12/13 08:56:17;;;;;;;22.27;9.07;;;;;;;2.87;100.00;99394.41;1708251;83;21524;-64
2022/12/13 08:58:50;;;;;;;21.30;9.27;;;;;;;2.87;100.00;99377.91;1708168;83;21059;-64
2022/12/13 09:09:18;;;;;;;23.67;9.87;;;;;;;3.00;100.00;99349.09;1731915;83;21098;-66
2022/12/13 09:11:45;;;;;;;22.00;9.50;;;;;;;3.09;100.00;99332.73;1733948;83;21591;-65
2022/12/13 09:14:12;;;;;;;20.00;9.93;;;;;;;3.06;100.00;99332.16;1734530;82;21524;-64
2022/12/13 09:24:27;;;;;;;19.90;9.13;;;;;;;3.07;100.00;99305.81;1706108;84;21047;-64
2022/12/13 09:26:55;;;;;;;23.30;10.10;;;;;;;3.08;100.00;99286.98;1708042;83;21525;-64
2022/12/13 09:29:22;;;;;;;22.73;10.03;;;;;;;3.12;100.00;99281.70;1708310;83;21211;-64
2022/12/13 09:31:51;;;;;;;23.37;9.90;;;;;;;3.11;100.00;99271.98;1708409;83;21042;-64
2022/12/13 09:34:20;;;;;;;19.80;9.33;;;;;;;3.11;100.00;99271.98;1708063;83;21046;-64
2022/12/13 09:41:30;;;;;;;21.03;9.93;;;;;;;3.12;100.00;99240.29;1728348;83;21058;-62
2022/12/13 09:44:05;;;;;;;24.40;10.60;;;;;;;3.14;100.00;99216.11;1729579;82;21079;-65
2022/12/13 09:46:38;;;;;;;22.13;9.97;;;;;;;3.10;100.00;99206.20;1729543;82;20995;-65
2022/12/13 09:49:20;;;;;;;20.70;9.60;;;;;;;3.07;100.00;99188.29;1729217;83;21031;-65
2022/12/13 09:54:52;;;;;;;23.90;10.50;;;;;;;3.03;100.00;99184.56;1707122;83;21200;-65
2022/12/13 09:57:44;;;;;;;22.03;10.47;;;;;;;3.01;100.00;99164.31;1729384;82;21443;-66
2022/12/13 10:00:17;;;;;;;25.60;10.70;;;;;;;3.02;100.00;99164.67;1729341;82;21003;-65
2022/12/13 10:02:53;;;;;;;20.17;10.00;;;;;;;3.00;100.00;99150.13;1723194;81;21027;-65
2022/12/13 10:35:31;;;;;;;25.07;11.53;;;;;;;2.69;100.00;99090.73;1761526;80;22610;-67
2022/12/13 10:38:15;;;;;;;32.73;16.57;;;;;;;2.67;100.00;99025.98;1759843;80;20990;-65
2022/12/13 10:44:43;;;;;;;26.20;13.03;;;;;;;2.61;100.00;99020.73;1757362;82;21145;-66
2022/12/13 10:47:19;;;;;;;23.33;10.97;;;;;;;2.56;100.00;99010.99;1757644;82;21047;-65
2022/12/13 10:49:57;;;;;;;24.87;10.97;;;;;;;2.56;100.00;99011.49;1758205;82;21028;-68
2022/12/13 10:52:32;;;;;;;26.57;12.10;;;;;;;2.55;100.00;99003.98;1746097;82;21033;-66
2022/12/13 10:55:04;;;;;;;39.43;20.00;;;;;;;2.58;100.00;99002.84;1774188;80;21001;-65
2022/12/13 10:57:31;;;;;;;43.43;21.47;;;;;;;2.58;100.00;99010.34;1757814;81;21534;-67
2022/12/13 10:59:57;;;;;;;24.63;11.33;;;;;;;2.58;100.00;99011.68;1765593;81;20974;-67
2022/12/13 11:02:37;;;;;;;50.77;23.23;;;;;;;2.54;100.00;99023.64;1769455;80;21021;-67
2022/12/13 11:05:35;;;;;;;39.87;20.90;;;;;;;2.52;100.00;99028.28;1795983;80;21029;-65
2022/12/13 11:08:17;;;;;;;40.60;21.13;;;;;;;2.51;100.00;99017.25;1795248;80;21017;-67
2022/12/13 11:10:45;;;;;;;49.40;27.77;;;;;;;2.51;100.00;99022.59;1794538;80;21507;-65
2022/12/13 11:21:06;;;;;;;66.53;28.80;;;;;;;2.51;100.00;99060.45;1795144;80;21034;-65
2022/12/13 11:23:44;;;;;;;49.97;25.23;;;;;;;2.43;100.00;99055.84;1785887;79;21006;-65
2022/12/13 11:26:16;;;;;;;39.33;18.97;;;;;;;2.37;100.00;99051.89;1769652;81;21498;-66
2022/12/13 11:29:17;;;;;;;34.47;16.17;;;;;;;2.34;100.00;99051.34;1783770;80;20969;-65
2022/12/13 11:32:07;;;;;;;26.17;11.87;;;;;;;2.30;100.00;99065.95;1794766;80;21029;-65
2022/12/13 11:34:59;;;;;;;36.53;13.67;;;;;;;2.24;100.00;99056.20;1795579;80;21018;-68
2022/12/13 11:37:55;;;;;;;51.53;17.67;;;;;;;2.18;100.00;99056.78;1794858;80;20993;-67
2022/12/13 11:40:29;;;;;;;35.03;13.93;;;;;;;2.12;100.00;99065.83;1795558;80;21530;-64
2022/12/13 11:43:07;;;;;;;62.90;22.40;;;;;;;2.06;100.00;99074.73;1795105;80;21084;-65
2022/12/13 11:45:38;;;;;;;88.47;34.00;;;;;;;2.00;100.00;99071.31;1795931;80;21053;-63
2022/12/13 11:48:19;;;;;;;99.70;34.53;;;;;;;1.92;100.00;99064.49;1795502;80;21538;-64
2022/12/13 11:50:50;;;;;;;46.93;19.77;;;;;;;1.85;100.00;99066.03;1794522;80;21582;-66
2022/12/13 11:53:38;;;;;;;33.23;14.40;;;;;;;1.76;100.00;99058.38;1795266;80;21040;-65
2022/12/13 11:56:14;;;;;;;27.43;12.73;;;;;;;1.68;100.00;99043.56;1795600;80;21021;-65
2022/12/13 11:59:14;;;;;;;33.90;13.03;;;;;;;1.58;100.00;99046.73;1787734;80;21064;-66
2022/12/13 12:01:59;;;;;;;47.70;20.20;;;;;;;1.48;100.00;99052.02;1795491;80;21088;-66
2022/12/13 12:04:49;;;;;;;42.07;21.17;;;;;;;1.36;100.00;99039.80;1794388;80;20968;-64
2022/12/13 12:07:24;;;;;;;36.73;17.33;;;;;;;1.24;100.00;99022.61;1795590;80;20996;-64
2022/12/13 12:10:18;;;;;;;29.83;15.27;;;;;;;1.13;100.00;99028.03;1785198;80;21080;-64
2022/12/13 12:13:12;;;;;;;41.30;17.47;;;;;;;1.05;100.00;99027.88;1716349;83;21049;-64
2022/12/13 12:16:00;;;;;;;32.17;13.37;;;;;;;0.94;100.00;99009.70;1664599;84;21061;-65
2022/12/13 12:18:27;;;;;;;25.77;10.27;;;;;;;0.86;100.00;99010.84;1763901;80;21116;-65
2022/12/13 12:21:25;;;;;;;39.50;16.47;;;;;;;0.80;100.00;99003.41;1760203;81;21081;-71
2022/12/13 12:24:28;;;;;;;38.67;15.07;;;;;;;0.72;100.00;98988.09;1758320;81;21053;-66
2022/12/13 12:27:18;;;;;;;27.73;12.60;;;;;;;0.64;100.00;98973.78;1761093;81;21037;-67
2022/12/13 12:30:20;;;;;;;22.93;10.23;;;;;;;0.60;100.00;98971.05;1764508;81;21073;-67
2022/12/13 12:33:07;;;;;;;25.90;11.23;;;;;;;0.56;100.00;98969.14;1764023;81;21050;-66
2022/12/13 12:35:55;;;;;;;31.47;13.67;;;;;;;0.51;100.00;98962.91;1749169;81;21072;-66
2022/12/13 12:38:54;;;;;;;50.40;17.97;;;;;;;0.51;100.00;98960.71;1743048;82;21078;-66
2022/12/13 12:41:47;;;;;;;47.23;17.67;;;;;;;0.49;100.00;98948.87;1748048;82;21213;-66
2022/12/13 12:44:38;;;;;;;29.70;12.93;;;;;;;0.46;100.00;98940.31;1747517;82;21610;-67
2022/12/13 12:47:20;;;;;;;27.80;12.90;;;;;;;0.43;100.00;98947.25;1747012;82;21110;-67
2022/12/13 12:50:36;;;;;;;43.53;18.53;;;;;;;0.40;100.00;98938.20;1747799;82;21097;-67
2022/12/13 12:53:31;;;;;;;68.73;34.30;;;;;;;0.37;100.00;98928.66;1747802;82;21026;-68
2022/12/13 12:56:13;;;;;;;55.40;23.20;;;;;;;0.31;100.00;98922.06;1747675;82;21042;-65
2022/12/13 12:58:55;;;;;;;41.13;18.82;;;;;;;0.25;100.00;98918.62;1747121;82;20995;-65
2022/12/13 13:02:01;;;;;;;18.73;8.33;;;;;;;0.20;100.00;98923.48;1747252;82;21094;-67
2022/12/13 13:04:41;;;;;;;21.93;10.20;;;;;;;0.18;100.00;98928.10;1746754;82;21058;-66
2022/12/13 13:07:22;;;;;;;18.40;8.23;;;;;;;0.14;100.00;98922.20;1747032;82;21050;-65
2022/12/13 13:09:49;;;;;;;13.57;6.37;;;;;;;0.15;100.00;98925.70;1747619;82;21035;-69
2022/12/13 13:12:15;;;;;;;5.87;3.60;;;;;;;0.13;100.00;98920.52;1747407;82;21070;-67
2022/12/13 13:14:42;;;;;;;13.80;4.53;;;;;;;0.11;100.00;98910.50;1746642;82;21566;-67
2022/12/13 13:17:24;;;;;;;11.57;4.77;;;;;;;0.10;100.00;98907.97;1747289;82;21014;-68
2022/12/13 13:20:17;;;;;;;8.93;3.77;;;;;;;0.07;100.00;98905.57;1748054;82;21039;-69
2022/12/13 13:22:44;;;;;;;16.50;4.95;;;;;;;0.05;100.00;98896.89;1728438;82;21519;-67
2022/12/13 13:25:29;;;;;;;13.30;4.43;;;;;;;0.03;100.00;98886.39;1747130;82;21061;-70
2022/12/13 13:28:15;;;;;;;6.47;3.37;;;;;;;0.05;100.00;98892.41;1743784;82;21051;-73
2022/12/13 13:31:04;;;;;;;8.47;4.47;;;;;;;0.07;100.00;98896.27;1730904;83;21085;-68
2022/12/13 13:33:46;;;;;;;6.83;3.47;;;;;;;0.07;100.00;98888.30;1716096;83;21372;-68
2022/12/13 13:36:43;;;;;;;8.58;4.30;;;;;;;0.05;100.00;98884.43;1735492;83;20973;-69
2022/12/13 13:39:15;;;;;;;5.67;2.70;;;;;;;0.04;100.00;98885.92;1735113;83;20985;-70
2022/12/13 13:42:16;;;;;;;9.58;3.92;;;;;;;0.02;100.00;98886.52;1734828;83;21033;-68
2022/12/13 13:44:51;;;;;;;28.70;13.13;;;;;;;-0.01;100.00;98888.96;1735083;83;21049;-73
2022/12/13 13:47:24;;;;;;;19.40;8.97;;;;;;;-0.01;100.00;98890.30;1734822;83;21112;-72
2022/12/13 13:50:25;;;;;;;42.05;18.12;;;;;;;-0.02;100.00;98891.25;1745982;80;21057;-71
2022/12/13 13:53:35;;;;;;;47.03;20.70;;;;;;;-0.02;100.00;98884.61;1776904;80;21056;-70
2022/12/13 13:56:33;;;;;;;54.37;25.23;;;;;;;-0.02;100.00;98885.94;1767220;80;21060;-71
2022/12/13 13:59:22;;;;;;;48.77;23.27;;;;;;;-0.05;100.00;98885.73;1769162;81;21440;-70
2022/12/13 14:02:35;;;;;;;62.90;30.33;;;;;;;-0.06;100.00;98881.37;1768541;81;21014;-68
2022/12/13 14:05:14;;;;;;;44.67;23.10;;;;;;;-0.06;100.00;98888.02;1777903;80;21049;-69
2022/12/13 14:08:09;;;;;;;22.03;10.87;;;;;;;-0.07;100.00;98892.13;1779720;80;21058;-70
2022/12/13 14:32:21;;;;;;;11.73;4.83;;;;;;;-0.04;100.00;99000.34;1829136;77;22905;-73
2022/12/13 14:34:48;;;;;;;16.37;6.60;;;;;;;-0.04;100.00;98960.48;1785271;79;21035;-73
2022/12/13 14:37:31;;;;;;;14.83;6.03;;;;;;;-0.09;100.00;98949.42;1797033;79;20999;-74
2022/12/13 14:39:59;;;;;;;8.90;4.72;;;;;;;-0.12;100.00;98953.66;1811780;79;21045;-75
2022/12/13 14:42:35;;;;;;;10.27;4.57;;;;;;;-0.14;100.00;98956.94;1795135;79;20971;-72
2022/12/13 14:45:32;;;;;;;9.83;4.73;;;;;;;-0.20;100.00;98948.97;1788808;79;21022;-73
2022/12/13 14:48:06;;;;;;;8.63;4.07;;;;;;;-0.23;100.00;98945.73;1804856;79;21006;-73
2022/12/13 14:50:35;;;;;;;7.67;4.57;;;;;;;-0.25;100.00;98939.25;1814481;79;20975;-72
2022/12/13 14:53:02;;;;;;;7.83;4.07;;;;;;;-0.26;100.00;98959.30;1814579;79;20955;-72
2022/12/13 14:55:38;;;;;;;12.13;6.03;;;;;;;-0.28;100.00;98958.09;1808406;79;21049;-72
2022/12/13 14:58:15;;;;;;;10.73;5.87;;;;;;;-0.28;100.00;98942.65;1781410;80;21012;-71
2022/12/13 15:00:44;;;;;;;9.47;5.33;;;;;;;-0.31;100.00;98933.11;1786529;79;20994;-71
2022/12/13 15:03:23;;;;;;;11.63;5.23;;;;;;;-0.31;100.00;98940.24;1768328;79;21146;-72
2022/12/13 15:05:57;;;;;;;9.47;4.53;;;;;;;-0.33;100.00;98953.65;1791949;79;21017;-71
2022/12/13 15:08:24;;;;;;;;;;;;;;;-0.35;100.00;98955.59;1790880;79;20990;-73
2022/12/13 15:10:58;;;;;;;13.00;6.00;;;;;;;-0.36;100.00;98953.89;1792439;79;20120;-73
2022/12/13 15:13:34;;;;;;;12.23;5.57;;;;;;;-0.37;100.00;98960.20;1792447;79;21006;-74
2022/12/13 15:16:05;;;;;;;14.40;6.27;;;;;;;-0.39;100.00;98958.99;1794632;79;21061;-72
2022/12/13 15:18:35;;;;;;;;;;;;;;;-0.37;100.00;98965.97;1795298;79;21026;-72
2022/12/13 15:21:24;;;;;;;13.40;6.00;;;;;;;-0.38;100.00;98969.12;1794116;79;20096;-72
2022/12/13 15:24:01;;;;;;;13.37;6.47;;;;;;;-0.37;100.00;98964.18;1795182;79;21037;-71
2022/12/13 15:26:31;;;;;;;15.83;7.10;;;;;;;-0.36;100.00;98949.91;1794603;79;20991;-74
2022/12/13 15:29:03;;;;;;;14.67;7.53;;;;;;;-0.35;100.00;98934.34;1741602;80;20999;-73
2022/12/13 15:31:33;;;;;;;11.87;5.50;;;;;;;-0.32;100.00;98938.08;1787297;79;20995;-72
2022/12/13 15:34:31;;;;;;;11.67;5.53;;;;;;;-0.32;100.00;98954.48;1744726;80;21506;-74
2022/12/13 15:37:06;;;;;;;23.23;9.57;;;;;;;-0.33;100.00;98954.98;1736322;82;21086;-75
2022/12/13 15:39:40;;;;;;;12.20;5.40;;;;;;;-0.31;100.00;98953.03;1732199;82;21078;-71
2022/12/13 15:42:24;;;;;;;10.73;5.07;;;;;;;-0.31;100.00;98956.18;1762433;81;20999;-71
2022/12/13 15:44:56;;;;;;;8.20;4.30;;;;;;;-0.31;100.00;98961.49;1769920;80;20989;-70
2022/12/13 15:47:27;;;;;;;9.13;4.03;;;;;;;-0.33;100.00;98970.91;1771956;81;21029;-70
2022/12/13 15:49:58;;;;;;;8.53;4.57;;;;;;;-0.33;100.00;98980.21;1771467;81;20993;-68
2022/12/13 15:52:36;;;;;;;10.07;4.83;;;;;;;-0.36;100.00;98979.13;1770313;81;21072;-71
2022/12/13 15:55:12;;;;;;;10.20;5.20;;;;;;;-0.36;100.00;98982.28;1770504;81;21068;-69
2022/12/13 15:57:51;;;;;;;9.37;4.10;;;;;;;-0.37;100.00;98988.09;1770067;81;21613;-70
2022/12/13 16:00:23;;;;;;;9.17;4.70;;;;;;;-0.37;100.00;98993.86;1770107;81;21111;-68
2022/12/13 16:03:11;;;;;;;10.40;4.65;;;;;;;-0.35;100.00;99007.39;1769559;81;21051;-69
2022/12/13 16:05:44;;;;;;;10.57;5.33;;;;;;;-0.35;100.00;99014.03;1770139;81;21088;-69
2022/12/13 16:08:22;;;;;;;13.15;5.45;;;;;;;-0.38;100.00;99008.97;1770966;81;21478;-69
2022/12/13 16:10:49;;;;;;;11.07;5.47;;;;;;;-0.41;100.00;99010.08;1770639;81;21060;-69
2022/12/13 16:13:29;;;;;;;9.63;4.53;;;;;;;-0.42;100.00;99020.83;1770741;81;21028;-70
2022/12/13 16:15:59;;;;;;;13.43;5.33;;;;;;;-0.46;100.00;99028.20;1771360;81;21521;-71